sensor_id;sensor_type;location;lat;lon;timestamp;P1;durP1;ratioP1;P2;durP2;ratioP2
18695;SDS011;22617;43.690;27.956;2023-07-09T00:03:59;3.75;;;2.00;;
18695;SDS011;22617;43.690;27.956;2023-07-09T00:09:04;2.88;;;1.90;;
18695;SDS011;22617;43.690;27.956;2023-07-09T00:14:08;2.72;;;1.83;;
18695;SDS011;22617;43.690;27.956;2023-07-09T00:19:12;3.17;;;2.00;;
18695;SDS011;22617;43.690;27.956;2023-07-09T00:24:20;4.22;;;2.30;;
18695;SDS011;22617;43.690;27.956;2023-07-09T00:29:24;6.20;;;2.08;;
18695;SDS011;22617;43.690;27.956;2023-07-09T00:34:27;4.32;;;2.03;;
18695;SDS011;22617;43.690;27.956;2023-07-09T00:39:33;3.17;;;2.00;;
18695;SDS011;22617;43.690;27.956;2023-07-09T00:44:37;3.50;;;2.00;;
18695;SDS011;22617;43.690;27.956;2023-07-09T00:49:45;2.65;;;1.90;;
18695;SDS011;22617;43.690;27.956;2023-07-09T00:54:51;3.47;;;1.80;;
18695;SDS011;22617;43.690;27.956;2023-07-09T00:59:56;3.73;;;2.17;;
18695;SDS011;22617;43.690;27.956;2023-07-09T01:05:06;6.07;;;2.00;;
18695;SDS011;22617;43.690;27.956;2023-07-09T01:10:11;6.17;;;1.83;;
18695;SDS011;22617;43.690;27.956;2023-07-09T01:15:16;4.63;;;1.77;;
18695;SDS011;22617;43.690;27.956;2023-07-09T01:20:20;2.92;;;1.90;;
18695;SDS011;22617;43.690;27.956;2023-07-09T01:25:25;4.17;;;2.20;;
18695;SDS011;22617;43.690;27.956;2023-07-09T01:30:30;3.30;;;2.00;;
18695;SDS011;22617;43.690;27.956;2023-07-09T01:35:39;3.92;;;1.90;;
18695;SDS011;22617;43.690;27.956;2023-07-09T01:40:45;3.58;;;1.80;;
18695;SDS011;22617;43.690;27.956;2023-07-09T01:45:49;3.25;;;2.20;;
18695;SDS011;22617;43.690;27.956;2023-07-09T01:50:54;3.75;;;1.90;;
18695;SDS011;22617;43.690;27.956;2023-07-09T01:56:00;2.97;;;2.03;;
18695;SDS011;22617;43.690;27.956;2023-07-09T02:01:04;2.97;;;2.15;;
18695;SDS011;22617;43.690;27.956;2023-07-09T02:06:08;5.93;;;2.10;;
18695;SDS011;22617;43.690;27.956;2023-07-09T02:11:14;3.63;;;2.00;;
18695;SDS011;22617;43.690;27.956;2023-07-09T02:16:19;3.77;;;2.10;;
18695;SDS011;22617;43.690;27.956;2023-07-09T02:21:23;4.60;;;2.17;;
18695;SDS011;22617;43.690;27.956;2023-07-09T02:26:33;5.70;;;2.65;;
18695;SDS011;22617;43.690;27.956;2023-07-09T02:31:37;3.00;;;2.03;;
18695;SDS011;22617;43.690;27.956;2023-07-09T02:36:42;4.88;;;2.40;;
18695;SDS011;22617;43.690;27.956;2023-07-09T02:41:47;3.42;;;2.28;;
18695;SDS011;22617;43.690;27.956;2023-07-09T02:46:51;5.80;;;2.33;;
18695;SDS011;22617;43.690;27.956;2023-07-09T02:51:55;4.63;;;2.20;;
18695;SDS011;22617;43.690;27.956;2023-07-09T02:57:00;4.00;;;2.60;;
18695;SDS011;22617;43.690;27.956;2023-07-09T03:02:04;6.80;;;2.17;;
18695;SDS011;22617;43.690;27.956;2023-07-09T03:07:08;6.15;;;2.33;;
18695;SDS011;22617;43.690;27.956;2023-07-09T03:12:13;4.93;;;2.30;;
18695;SDS011;22617;43.690;27.956;2023-07-09T03:17:17;4.85;;;2.50;;
18695;SDS011;22617;43.690;27.956;2023-07-09T03:22:20;5.43;;;2.10;;
18695;SDS011;22617;43.690;27.956;2023-07-09T03:27:25;4.00;;;2.77;;
18695;SDS011;22617;43.690;27.956;2023-07-09T03:32:29;6.87;;;2.13;;
18695;SDS011;22617;43.690;27.956;2023-07-09T03:37:33;5.18;;;2.10;;
18695;SDS011;22617;43.690;27.956;2023-07-09T03:42:38;3.03;;;1.90;;
18695;SDS011;22617;43.690;27.956;2023-07-09T03:47:41;6.60;;;2.35;;
18695;SDS011;22617;43.690;27.956;2023-07-09T03:52:45;2.97;;;2.03;;
18695;SDS011;22617;43.690;27.956;2023-07-09T03:57:50;6.83;;;2.43;;
18695;SDS011;22617;43.690;27.956;2023-07-09T04:02:54;5.80;;;2.00;;
18695;SDS011;22617;43.690;27.956;2023-07-09T04:07:58;4.43;;;2.40;;
18695;SDS011;22617;43.690;27.956;2023-07-09T04:13:03;7.43;;;2.28;;
18695;SDS011;22617;43.690;27.956;2023-07-09T04:18:07;3.95;;;2.13;;
18695;SDS011;22617;43.690;27.956;2023-07-09T04:23:10;7.38;;;3.10;;
18695;SDS011;22617;43.690;27.956;2023-07-09T04:28:17;2.88;;;2.05;;
18695;SDS011;22617;43.690;27.956;2023-07-09T04:33:20;5.90;;;2.15;;
18695;SDS011;22617;43.690;27.956;2023-07-09T04:38:25;7.03;;;2.22;;
18695;SDS011;22617;43.690;27.956;2023-07-09T04:43:30;4.35;;;2.50;;
18695;SDS011;22617;43.690;27.956;2023-07-09T04:48:34;9.10;;;2.28;;
18695;SDS011;22617;43.690;27.956;2023-07-09T04:53:38;4.20;;;2.40;;
18695;SDS011;22617;43.690;27.956;2023-07-09T04:58:43;5.00;;;2.60;;
18695;SDS011;22617;43.690;27.956;2023-07-09T05:03:46;4.75;;;2.60;;
18695;SDS011;22617;43.690;27.956;2023-07-09T05:08:50;4.45;;;2.28;;
18695;SDS011;22617;43.690;27.956;2023-07-09T05:13:55;3.45;;;2.17;;
18695;SDS011;22617;43.690;27.956;2023-07-09T05:18:59;4.93;;;2.22;;
18695;SDS011;22617;43.690;27.956;2023-07-09T05:24:03;7.43;;;2.38;;
18695;SDS011;22617;43.690;27.956;2023-07-09T05:29:09;5.00;;;2.03;;
18695;SDS011;22617;43.690;27.956;2023-07-09T05:34:12;4.30;;;2.15;;
18695;SDS011;22617;43.690;27.956;2023-07-09T05:39:17;4.82;;;2.50;;
18695;SDS011;22617;43.690;27.956;2023-07-09T05:44:22;4.60;;;2.00;;
18695;SDS011;22617;43.690;27.956;2023-07-09T05:49:26;2.70;;;1.92;;
18695;SDS011;22617;43.690;27.956;2023-07-09T05:54:29;4.20;;;2.30;;
18695;SDS011;22617;43.690;27.956;2023-07-09T05:59:34;7.57;;;3.00;;
18695;SDS011;22617;43.690;27.956;2023-07-09T06:04:38;3.88;;;2.50;;
18695;SDS011;22617;43.690;27.956;2023-07-09T06:09:42;5.38;;;2.42;;
18695;SDS011;22617;43.690;27.956;2023-07-09T06:14:48;2.58;;;2.08;;
18695;SDS011;22617;43.690;27.956;2023-07-09T06:19:51;5.13;;;2.63;;
18695;SDS011;22617;43.690;27.956;2023-07-09T06:24:57;5.75;;;2.90;;
18695;SDS011;22617;43.690;27.956;2023-07-09T06:30:02;6.68;;;2.50;;
18695;SDS011;22617;43.690;27.956;2023-07-09T06:35:07;5.22;;;2.70;;
18695;SDS011;22617;43.690;27.956;2023-07-09T06:40:11;4.45;;;2.38;;
18695;SDS011;22617;43.690;27.956;2023-07-09T06:45:16;6.72;;;2.70;;
18695;SDS011;22617;43.690;27.956;2023-07-09T06:50:20;5.25;;;2.45;;
18695;SDS011;22617;43.690;27.956;2023-07-09T06:55:24;3.08;;;2.30;;
18695;SDS011;22617;43.690;27.956;2023-07-09T07:00:29;7.60;;;2.55;;
18695;SDS011;22617;43.690;27.956;2023-07-09T07:05:33;5.45;;;2.38;;
18695;SDS011;22617;43.690;27.956;2023-07-09T07:10:36;4.57;;;2.60;;
18695;SDS011;22617;43.690;27.956;2023-07-09T07:15:49;4.78;;;2.80;;
18695;SDS011;22617;43.690;27.956;2023-07-09T07:20:52;4.32;;;2.92;;
18695;SDS011;22617;43.690;27.956;2023-07-09T07:25:56;5.15;;;2.67;;
18695;SDS011;22617;43.690;27.956;2023-07-09T07:31:01;5.10;;;2.38;;
18695;SDS011;22617;43.690;27.956;2023-07-09T07:36:07;4.57;;;2.38;;
18695;SDS011;22617;43.690;27.956;2023-07-09T07:41:14;5.93;;;2.60;;
18695;SDS011;22617;43.690;27.956;2023-07-09T07:46:20;6.78;;;2.55;;
18695;SDS011;22617;43.690;27.956;2023-07-09T07:51:23;5.28;;;2.30;;
18695;SDS011;22617;43.690;27.956;2023-07-09T07:56:27;5.85;;;2.47;;
18695;SDS011;22617;43.690;27.956;2023-07-09T08:01:32;3.55;;;2.33;;
18695;SDS011;22617;43.690;27.956;2023-07-09T08:06:37;8.45;;;3.05;;
18695;SDS011;22617;43.690;27.956;2023-07-09T08:11:40;5.35;;;2.75;;
18695;SDS011;22617;43.690;27.956;2023-07-09T08:16:45;6.00;;;2.45;;
18695;SDS011;22617;43.690;27.956;2023-07-09T08:21:49;3.60;;;2.20;;
18695;SDS011;22617;43.690;27.956;2023-07-09T08:26:53;6.38;;;2.65;;
18695;SDS011;22617;43.690;27.956;2023-07-09T08:32:03;8.15;;;2.50;;
18695;SDS011;22617;43.690;27.956;2023-07-09T08:37:08;4.60;;;2.50;;
18695;SDS011;22617;43.690;27.956;2023-07-09T08:42:13;5.93;;;2.53;;
18695;SDS011;22617;43.690;27.956;2023-07-09T08:47:25;6.25;;;2.60;;
18695;SDS011;22617;43.690;27.956;2023-07-09T08:52:35;8.10;;;2.67;;
18695;SDS011;22617;43.690;27.956;2023-07-09T08:57:43;7.07;;;2.53;;
18695;SDS011;22617;43.690;27.956;2023-07-09T09:02:51;6.78;;;2.78;;
18695;SDS011;22617;43.690;27.956;2023-07-09T09:08:01;5.60;;;2.67;;
18695;SDS011;22617;43.690;27.956;2023-07-09T09:13:10;10.25;;;2.63;;
18695;SDS011;22617;43.690;27.956;2023-07-09T09:18:22;4.88;;;2.30;;
18695;SDS011;22617;43.690;27.956;2023-07-09T09:23:29;3.40;;;2.40;;
18695;SDS011;22617;43.690;27.956;2023-07-09T09:28:42;6.32;;;2.28;;
18695;SDS011;22617;43.690;27.956;2023-07-09T09:33:48;3.58;;;2.20;;
18695;SDS011;22617;43.690;27.956;2023-07-09T09:38:53;5.38;;;2.58;;
18695;SDS011;22617;43.690;27.956;2023-07-09T09:43:57;8.23;;;2.30;;
18695;SDS011;22617;43.690;27.956;2023-07-09T09:49:02;6.20;;;2.75;;
18695;SDS011;22617;43.690;27.956;2023-07-09T09:54:07;7.82;;;2.80;;
18695;SDS011;22617;43.690;27.956;2023-07-09T09:59:19;5.22;;;2.20;;
18695;SDS011;22617;43.690;27.956;2023-07-09T10:04:26;3.97;;;2.80;;
18695;SDS011;22617;43.690;27.956;2023-07-09T10:09:34;6.70;;;2.20;;
18695;SDS011;22617;43.690;27.956;2023-07-09T10:14:49;5.68;;;2.47;;
18695;SDS011;22617;43.690;27.956;2023-07-09T10:20:02;7.05;;;2.70;;
18695;SDS011;22617;43.690;27.956;2023-07-09T10:25:15;4.22;;;2.33;;
18695;SDS011;22617;43.690;27.956;2023-07-09T10:30:36;4.57;;;3.05;;
18695;SDS011;22617;43.690;27.956;2023-07-09T10:35:49;9.40;;;2.40;;
18695;SDS011;22617;43.690;27.956;2023-07-09T10:40:58;3.40;;;2.20;;
18695;SDS011;22617;43.690;27.956;2023-07-09T10:46:25;5.05;;;2.17;;
18695;SDS011;22617;43.690;27.956;2023-07-09T10:51:36;3.95;;;2.47;;
18695;SDS011;22617;43.690;27.956;2023-07-09T10:56:42;3.05;;;2.40;;
18695;SDS011;22617;43.690;27.956;2023-07-09T11:01:49;6.15;;;2.40;;
18695;SDS011;22617;43.690;27.956;2023-07-09T11:07:01;5.35;;;2.20;;
18695;SDS011;22617;43.690;27.956;2023-07-09T11:12:09;9.27;;;2.80;;
18695;SDS011;22617;43.690;27.956;2023-07-09T11:17:17;5.63;;;2.53;;
18695;SDS011;22617;43.690;27.956;2023-07-09T11:22:26;4.10;;;2.33;;
18695;SDS011;22617;43.690;27.956;2023-07-09T11:27:48;3.85;;;2.25;;
18695;SDS011;22617;43.690;27.956;2023-07-09T11:32:54;7.82;;;2.83;;
18695;SDS011;22617;43.690;27.956;2023-07-09T11:38:22;4.15;;;2.35;;
18695;SDS011;22617;43.690;27.956;2023-07-09T11:43:28;9.27;;;2.92;;
18695;SDS011;22617;43.690;27.956;2023-07-09T11:48:35;4.60;;;2.30;;
18695;SDS011;22617;43.690;27.956;2023-07-09T11:53:42;5.40;;;2.85;;
18695;SDS011;22617;43.690;27.956;2023-07-09T11:58:49;3.85;;;2.65;;
18695;SDS011;22617;43.690;27.956;2023-07-09T12:03:54;5.00;;;2.53;;
18695;SDS011;22617;43.690;27.956;2023-07-09T12:09:02;7.80;;;2.50;;
18695;SDS011;22617;43.690;27.956;2023-07-09T12:14:08;7.05;;;2.80;;
18695;SDS011;22617;43.690;27.956;2023-07-09T12:19:16;4.30;;;2.42;;
18695;SDS011;22617;43.690;27.956;2023-07-09T12:24:24;6.93;;;2.78;;
18695;SDS011;22617;43.690;27.956;2023-07-09T12:29:29;6.60;;;2.88;;
18695;SDS011;22617;43.690;27.956;2023-07-09T12:34:34;4.50;;;2.78;;
18695;SDS011;22617;43.690;27.956;2023-07-09T12:39:39;6.57;;;3.42;;
18695;SDS011;22617;43.690;27.956;2023-07-09T12:44:43;6.07;;;2.70;;
18695;SDS011;22617;43.690;27.956;2023-07-09T12:49:48;6.28;;;2.55;;
18695;SDS011;22617;43.690;27.956;2023-07-09T12:54:58;5.95;;;2.58;;
18695;SDS011;22617;43.690;27.956;2023-07-09T13:00:08;4.90;;;2.25;;
18695;SDS011;22617;43.690;27.956;2023-07-09T13:05:19;6.15;;;3.05;;
18695;SDS011;22617;43.690;27.956;2023-07-09T13:10:26;10.60;;;2.58;;
18695;SDS011;22617;43.690;27.956;2023-07-09T13:15:31;5.22;;;2.25;;
18695;SDS011;22617;43.690;27.956;2023-07-09T13:20:45;3.83;;;2.25;;
18695;SDS011;22617;43.690;27.956;2023-07-09T13:25:51;4.88;;;2.20;;
18695;SDS011;22617;43.690;27.956;2023-07-09T13:30:56;4.70;;;2.10;;
18695;SDS011;22617;43.690;27.956;2023-07-09T13:36:04;4.93;;;2.40;;
18695;SDS011;22617;43.690;27.956;2023-07-09T13:41:11;3.92;;;2.20;;
18695;SDS011;22617;43.690;27.956;2023-07-09T13:46:16;7.63;;;2.30;;
18695;SDS011;22617;43.690;27.956;2023-07-09T13:51:21;6.15;;;2.40;;
18695;SDS011;22617;43.690;27.956;2023-07-09T13:56:27;9.90;;;2.63;;
18695;SDS011;22617;43.690;27.956;2023-07-09T14:01:31;5.30;;;2.60;;
18695;SDS011;22617;43.690;27.956;2023-07-09T14:06:35;6.40;;;2.72;;
18695;SDS011;22617;43.690;27.956;2023-07-09T14:11:41;4.85;;;2.63;;
18695;SDS011;22617;43.690;27.956;2023-07-09T14:16:47;6.05;;;2.70;;
18695;SDS011;22617;43.690;27.956;2023-07-09T14:21:52;12.63;;;3.10;;
18695;SDS011;22617;43.690;27.956;2023-07-09T14:26:58;6.22;;;2.30;;
18695;SDS011;22617;43.690;27.956;2023-07-09T14:32:02;3.92;;;2.45;;
18695;SDS011;22617;43.690;27.956;2023-07-09T14:37:07;4.60;;;2.78;;
18695;SDS011;22617;43.690;27.956;2023-07-09T14:42:12;6.50;;;2.85;;
18695;SDS011;22617;43.690;27.956;2023-07-09T14:47:18;2.55;;;2.35;;
18695;SDS011;22617;43.690;27.956;2023-07-09T14:52:23;5.85;;;2.60;;
18695;SDS011;22617;43.690;27.956;2023-07-09T14:57:28;5.20;;;3.00;;
18695;SDS011;22617;43.690;27.956;2023-07-09T15:02:32;5.20;;;2.58;;
18695;SDS011;22617;43.690;27.956;2023-07-09T15:07:37;4.78;;;2.60;;
18695;SDS011;22617;43.690;27.956;2023-07-09T15:12:43;7.32;;;2.97;;
18695;SDS011;22617;43.690;27.956;2023-07-09T15:17:47;6.82;;;2.60;;
18695;SDS011;22617;43.690;27.956;2023-07-09T15:22:51;5.93;;;2.78;;
18695;SDS011;22617;43.690;27.956;2023-07-09T15:27:57;4.00;;;2.80;;
18695;SDS011;22617;43.690;27.956;2023-07-09T15:33:01;6.07;;;2.60;;
18695;SDS011;22617;43.690;27.956;2023-07-09T15:38:16;5.60;;;2.67;;
18695;SDS011;22617;43.690;27.956;2023-07-09T15:43:29;6.35;;;2.70;;
18695;SDS011;22617;43.690;27.956;2023-07-09T15:48:33;5.13;;;2.83;;
18695;SDS011;22617;43.690;27.956;2023-07-09T15:53:38;3.85;;;2.83;;
18695;SDS011;22617;43.690;27.956;2023-07-09T15:58:44;4.75;;;2.85;;
18695;SDS011;22617;43.690;27.956;2023-07-09T16:03:49;15.77;;;3.13;;
18695;SDS011;22617;43.690;27.956;2023-07-09T16:08:54;7.15;;;2.80;;
18695;SDS011;22617;43.690;27.956;2023-07-09T16:13:59;5.32;;;3.05;;
18695;SDS011;22617;43.690;27.956;2023-07-09T16:19:03;5.97;;;3.22;;
18695;SDS011;22617;43.690;27.956;2023-07-09T16:24:12;5.93;;;2.65;;
18695;SDS011;22617;43.690;27.956;2023-07-09T16:29:24;6.72;;;2.85;;
18695;SDS011;22617;43.690;27.956;2023-07-09T16:34:30;4.00;;;2.65;;
18695;SDS011;22617;43.690;27.956;2023-07-09T16:39:34;5.50;;;2.67;;
18695;SDS011;22617;43.690;27.956;2023-07-09T16:44:43;3.60;;;2.35;;
18695;SDS011;22617;43.690;27.956;2023-07-09T16:49:47;4.40;;;2.58;;
18695;SDS011;22617;43.690;27.956;2023-07-09T16:54:51;6.45;;;2.80;;
18695;SDS011;22617;43.690;27.956;2023-07-09T17:00:00;4.65;;;2.65;;
18695;SDS011;22617;43.690;27.956;2023-07-09T17:05:26;5.28;;;2.65;;
18695;SDS011;22617;43.690;27.956;2023-07-09T17:10:30;6.65;;;3.00;;
18695;SDS011;22617;43.690;27.956;2023-07-09T17:15:38;3.65;;;2.20;;
18695;SDS011;22617;43.690;27.956;2023-07-09T17:20:45;5.60;;;2.20;;
18695;SDS011;22617;43.690;27.956;2023-07-09T17:25:49;4.88;;;2.45;;
18695;SDS011;22617;43.690;27.956;2023-07-09T17:30:56;3.90;;;2.78;;
18695;SDS011;22617;43.690;27.956;2023-07-09T17:36:09;4.85;;;2.53;;
18695;SDS011;22617;43.690;27.956;2023-07-09T17:41:18;6.20;;;2.65;;
18695;SDS011;22617;43.690;27.956;2023-07-09T17:46:23;5.75;;;2.40;;
18695;SDS011;22617;43.690;27.956;2023-07-09T17:51:27;4.68;;;2.70;;
18695;SDS011;22617;43.690;27.956;2023-07-09T17:56:30;6.60;;;2.88;;
18695;SDS011;22617;43.690;27.956;2023-07-09T18:01:35;4.65;;;2.70;;
18695;SDS011;22617;43.690;27.956;2023-07-09T18:06:38;5.38;;;2.80;;
18695;SDS011;22617;43.690;27.956;2023-07-09T18:11:50;5.82;;;2.53;;
18695;SDS011;22617;43.690;27.956;2023-07-09T18:16:57;3.60;;;2.58;;
18695;SDS011;22617;43.690;27.956;2023-07-09T18:22:01;5.55;;;2.60;;
18695;SDS011;22617;43.690;27.956;2023-07-09T18:27:14;3.20;;;2.40;;
18695;SDS011;22617;43.690;27.956;2023-07-09T18:32:21;4.85;;;2.65;;
18695;SDS011;22617;43.690;27.956;2023-07-09T18:37:27;5.32;;;3.10;;
18695;SDS011;22617;43.690;27.956;2023-07-09T18:42:30;5.38;;;3.05;;
18695;SDS011;22617;43.690;27.956;2023-07-09T18:47:35;10.75;;;3.25;;
18695;SDS011;22617;43.690;27.956;2023-07-09T18:52:39;4.10;;;3.03;;
18695;SDS011;22617;43.690;27.956;2023-07-09T18:57:45;4.28;;;2.67;;
18695;SDS011;22617;43.690;27.956;2023-07-09T19:02:51;4.63;;;3.40;;
18695;SDS011;22617;43.690;27.956;2023-07-09T19:07:57;5.72;;;3.38;;
18695;SDS011;22617;43.690;27.956;2023-07-09T19:13:06;5.43;;;3.10;;
18695;SDS011;22617;43.690;27.956;2023-07-09T19:18:16;7.00;;;2.85;;
18695;SDS011;22617;43.690;27.956;2023-07-09T19:23:24;8.23;;;3.42;;
18695;SDS011;22617;43.690;27.956;2023-07-09T19:28:29;4.88;;;3.20;;
18695;SDS011;22617;43.690;27.956;2023-07-09T19:33:35;4.45;;;2.90;;
18695;SDS011;22617;43.690;27.956;2023-07-09T19:38:40;5.72;;;3.10;;
18695;SDS011;22617;43.690;27.956;2023-07-09T19:43:43;4.80;;;2.80;;
18695;SDS011;22617;43.690;27.956;2023-07-09T19:48:49;7.40;;;3.50;;
18695;SDS011;22617;43.690;27.956;2023-07-09T19:53:53;4.10;;;2.80;;
18695;SDS011;22617;43.690;27.956;2023-07-09T19:58:57;6.47;;;2.97;;
18695;SDS011;22617;43.690;27.956;2023-07-09T20:04:01;8.88;;;3.00;;
18695;SDS011;22617;43.690;27.956;2023-07-09T20:09:10;5.78;;;2.88;;
18695;SDS011;22617;43.690;27.956;2023-07-09T20:14:16;4.70;;;3.03;;
18695;SDS011;22617;43.690;27.956;2023-07-09T20:19:25;6.65;;;3.25;;
18695;SDS011;22617;43.690;27.956;2023-07-09T20:24:31;7.68;;;3.00;;
18695;SDS011;22617;43.690;27.956;2023-07-09T20:29:35;4.28;;;2.88;;
18695;SDS011;22617;43.690;27.956;2023-07-09T20:34:40;3.85;;;3.25;;
18695;SDS011;22617;43.690;27.956;2023-07-09T20:39:43;4.70;;;2.88;;
18695;SDS011;22617;43.690;27.956;2023-07-09T20:44:47;4.60;;;2.67;;
18695;SDS011;22617;43.690;27.956;2023-07-09T20:49:57;4.90;;;3.03;;
18695;SDS011;22617;43.690;27.956;2023-07-09T20:55:00;4.30;;;3.15;;
18695;SDS011;22617;43.690;27.956;2023-07-09T21:00:10;3.67;;;2.63;;
18695;SDS011;22617;43.690;27.956;2023-07-09T21:05:17;6.07;;;3.13;;
18695;SDS011;22617;43.690;27.956;2023-07-09T21:10:23;6.75;;;3.03;;
18695;SDS011;22617;43.690;27.956;2023-07-09T21:15:27;4.50;;;2.97;;
18695;SDS011;22617;43.690;27.956;2023-07-09T21:20:35;6.57;;;3.03;;
18695;SDS011;22617;43.690;27.956;2023-07-09T21:25:38;5.20;;;3.00;;
18695;SDS011;22617;43.690;27.956;2023-07-09T21:30:42;4.55;;;2.80;;
18695;SDS011;22617;43.690;27.956;2023-07-09T21:35:48;7.72;;;2.95;;
18695;SDS011;22617;43.690;27.956;2023-07-09T21:40:52;5.35;;;2.90;;
18695;SDS011;22617;43.690;27.956;2023-07-09T21:45:56;5.95;;;3.35;;
18695;SDS011;22617;43.690;27.956;2023-07-09T21:51:04;5.05;;;2.95;;
18695;SDS011;22617;43.690;27.956;2023-07-09T21:56:12;4.78;;;3.00;;
18695;SDS011;22617;43.690;27.956;2023-07-09T22:01:16;5.07;;;2.97;;
18695;SDS011;22617;43.690;27.956;2023-07-09T22:06:22;4.07;;;3.10;;
18695;SDS011;22617;43.690;27.956;2023-07-09T22:11:26;6.75;;;2.85;;
18695;SDS011;22617;43.690;27.956;2023-07-09T22:16:31;5.47;;;2.95;;
18695;SDS011;22617;43.690;27.956;2023-07-09T22:21:36;4.78;;;2.70;;
18695;SDS011;22617;43.690;27.956;2023-07-09T22:26:40;4.47;;;2.90;;
18695;SDS011;22617;43.690;27.956;2023-07-09T22:31:44;5.18;;;3.05;;
18695;SDS011;22617;43.690;27.956;2023-07-09T22:36:50;6.47;;;3.00;;
18695;SDS011;22617;43.690;27.956;2023-07-09T22:41:54;4.38;;;3.30;;
18695;SDS011;22617;43.690;27.956;2023-07-09T22:46:59;4.25;;;3.20;;
18695;SDS011;22617;43.690;27.956;2023-07-09T22:52:08;4.82;;;3.03;;
18695;SDS011;22617;43.690;27.956;2023-07-09T22:57:12;4.45;;;3.45;;
18695;SDS011;22617;43.690;27.956;2023-07-09T23:02:16;4.45;;;3.35;;
18695;SDS011;22617;43.690;27.956;2023-07-09T23:07:22;4.88;;;3.22;;
18695;SDS011;22617;43.690;27.956;2023-07-09T23:12:26;4.00;;;2.97;;
18695;SDS011;22617;43.690;27.956;2023-07-09T23:17:30;7.45;;;3.50;;
18695;SDS011;22617;43.690;27.956;2023-07-09T23:22:35;6.88;;;3.47;;
18695;SDS011;22617;43.690;27.956;2023-07-09T23:27:38;7.10;;;3.50;;
18695;SDS011;22617;43.690;27.956;2023-07-09T23:32:43;9.15;;;3.97;;
18695;SDS011;22617;43.690;27.956;2023-07-09T23:37:48;3.88;;;3.28;;
18695;SDS011;22617;43.690;27.956;2023-07-09T23:42:52;5.25;;;3.30;;
18695;SDS011;22617;43.690;27.956;2023-07-09T23:47:56;4.05;;;3.38;;
18695;SDS011;22617;43.690;27.956;2023-07-09T23:53:08;4.28;;;3.42;;
18695;SDS011;22617;43.690;27.956;2023-07-09T23:58:22;7.18;;;4.32;;
